Time;durP1;ratioP1;P1;durP2;ratioP2;P2;SDS_P1;SDS_P2;PMS_P1;PMS_P2;Temp;Humidity;BMP_temperature;BMP_pressure;BME280_temperature;BME280_humidity;BME280_pressure;Samples;Min_cycle;Max_cycle;Signal;HPM_P1;HPM_P2
2024/01/30 00:01:16;;;;;;;13.95;9.98;;;;;;;5.10;73.21;102030.53;4132110;28;20137;-68
2024/01/30 00:03:19;;;;;;;16.30;10.63;;;;;;;5.11;73.12;102027.19;4129030;28;20038;-68
2024/01/30 00:05:22;;;;;;;20.23;11.38;;;;;;;5.12;72.98;102023.78;4132664;28;20396;-68
2024/01/30 00:07:25;;;;;;;18.40;11.40;;;;;;;5.13;72.64;102035.88;4133139;28;20488;-67
2024/01/30 00:09:29;;;;;;;14.55;10.23;;;;;;;5.12;72.71;102028.94;4132198;28;20094;-67
2024/01/30 00:11:31;;;;;;;22.83;11.90;;;;;;;5.12;73.06;102023.78;4130801;28;20049;-68
2024/01/30 00:13:34;;;;;;;16.55;11.27;;;;;;;5.14;72.80;102026.47;4130986;28;20050;-67
2024/01/30 00:15:37;;;;;;;15.80;10.68;;;;;;;5.15;72.81;102023.97;4129338;28;20051;-68
2024/01/30 00:17:40;;;;;;;19.90;11.15;;;;;;;5.15;72.77;102029.13;4131095;28;20046;-68
2024/01/30 00:19:43;;;;;;;32.55;11.20;;;;;;;5.15;72.67;102018.81;4130204;28;20471;-68
2024/01/30 00:21:46;;;;;;;18.13;10.85;;;;;;;5.13;72.75;102029.84;4129487;28;20532;-68
2024/01/30 00:23:50;;;;;;;15.25;9.40;;;;;;;5.10;72.72;102027.97;4129044;28;20377;-68
2024/01/30 00:25:53;;;;;;;14.80;9.52;;;;;;;5.11;72.91;102027.19;4127818;28;20045;-68
2024/01/30 00:27:55;;;;;;;14.82;8.95;;;;;;;5.09;73.01;102033.91;4132066;28;20065;-68
2024/01/30 00:29:58;;;;;;;14.35;9.18;;;;;;;5.10;73.13;102030.53;4132250;28;20069;-68
2024/01/30 00:32:01;;;;;;;14.88;9.52;;;;;;;5.12;72.99;102035.78;4130992;28;20597;-68
2024/01/30 00:34:04;;;;;;;14.77;9.57;;;;;;;5.12;72.97;102039.25;4130297;28;20688;-68
2024/01/30 00:36:07;;;;;;;14.88;9.48;;;;;;;5.10;72.96;102043.44;4114755;28;20034;-68
2024/01/30 00:38:10;;;;;;;14.50;9.77;;;;;;;5.07;73.20;102044.13;4130648;28;20125;-68
2024/01/30 00:40:17;;;;;;;15.23;10.13;;;;;;;5.05;73.32;102038.00;4131592;28;20034;-68
2024/01/30 00:42:21;;;;;;;15.35;9.38;;;;;;;5.02;73.46;102032.66;4131172;28;20045;-68
2024/01/30 00:44:24;;;;;;;14.57;9.50;;;;;;;5.00;73.54;102038.50;4131263;28;20072;-68
2024/01/30 00:46:27;;;;;;;17.77;9.85;;;;;;;4.99;73.37;102042.75;4131951;28;20087;-68
2024/01/30 00:48:29;;;;;;;15.00;10.18;;;;;;;4.94;73.46;102043.28;4131177;28;20484;-68
2024/01/30 00:50:32;;;;;;;13.57;9.55;;;;;;;4.94;73.65;102043.28;4130607;28;20515;-68
2024/01/30 00:52:35;;;;;;;18.40;11.10;;;;;;;4.91;73.44;102038.81;4132229;28;20400;-68
2024/01/30 00:54:38;;;;;;;14.52;10.48;;;;;;;4.86;73.68;102041.13;4130429;28;20153;-69
2024/01/30 00:56:42;;;;;;;15.20;10.18;;;;;;;4.85;73.91;102044.47;4131834;28;20475;-68
2024/01/30 00:58:44;;;;;;;19.30;9.50;;;;;;;4.80;74.04;102035.56;4131879;28;20073;-68
2024/01/30 01:00:47;;;;;;;15.57;10.48;;;;;;;4.78;73.89;102037.16;4130735;28;20037;-68
2024/01/30 01:02:50;;;;;;;14.23;10.00;;;;;;;4.78;74.08;102034.56;4112137;28;20049;-67
2024/01/30 01:04:53;;;;;;;19.35;10.93;;;;;;;4.76;74.24;102037.84;4113812;28;20046;-67
2024/01/30 01:06:56;;;;;;;14.73;10.13;;;;;;;4.74;74.28;102042.91;4125996;28;20035;-67
2024/01/30 01:08:59;;;;;;;13.48;8.57;;;;;;;4.70;74.10;102038.34;4131643;28;20040;-68
2024/01/30 01:11:06;;;;;;;15.30;9.70;;;;;;;4.70;74.29;102038.34;4132265;28;20042;-68
2024/01/30 01:13:11;;;;;;;15.00;9.48;;;;;;;4.68;74.43;102039.94;4129367;28;20142;-68
2024/01/30 01:15:14;;;;;;;21.58;10.52;;;;;;;4.65;74.33;102039.75;4125629;28;20042;-68
2024/01/30 01:17:18;;;;;;;14.70;9.60;;;;;;;4.63;74.36;102036.16;4130759;28;20034;-68
2024/01/30 01:19:21;;;;;;;16.15;9.27;;;;;;;4.62;74.51;102034.41;4130766;28;20077;-67
2024/01/30 01:21:24;;;;;;;15.05;9.43;;;;;;;4.61;74.41;102030.03;4145832;28;20050;-67
2024/01/30 01:23:27;;;;;;;13.80;9.45;;;;;;;4.60;74.41;102029.16;4131313;28;20053;-67
2024/01/30 01:25:30;;;;;;;14.85;9.60;;;;;;;4.60;74.46;102031.72;4130699;28;20042;-67
2024/01/30 01:27:32;;;;;;;14.02;9.13;;;;;;;4.62;74.31;102026.69;4130444;28;20374;-68
2024/01/30 01:29:37;;;;;;;13.32;8.85;;;;;;;4.61;74.35;102037.75;4124129;28;20046;-67
2024/01/30 01:31:43;;;;;;;13.45;8.85;;;;;;;4.59;74.39;102034.22;4129399;28;20117;-67
2024/01/30 01:33:46;;;;;;;14.65;9.25;;;;;;;4.57;74.29;102033.19;4127752;28;20038;-68
2024/01/30 01:35:50;;;;;;;14.63;9.35;;;;;;;4.55;74.20;102034.00;4124725;28;20034;-68
2024/01/30 01:37:54;;;;;;;13.73;9.48;;;;;;;4.54;74.34;102036.47;4130619;28;20105;-68
2024/01/30 01:39:58;;;;;;;15.43;9.85;;;;;;;4.51;74.06;102034.59;4131149;28;20096;-68
2024/01/30 01:42:01;;;;;;;13.00;8.90;;;;;;;4.51;74.26;102032.03;4106877;28;20126;-68
2024/01/30 01:44:05;;;;;;;16.48;9.75;;;;;;;4.52;74.46;102033.78;4130853;28;20066;-68
2024/01/30 01:46:09;;;;;;;14.20;8.95;;;;;;;4.52;74.26;102032.91;4130981;28;20042;-68
2024/01/30 01:48:13;;;;;;;;;;;;;;;4.42;74.64;102031.41;4131418;28;20065;-68
2024/01/30 01:50:18;;;;;;;15.00;9.23;;;;;;;4.42;74.50;102023.69;4130677;28;19922;-68
2024/01/30 01:52:21;;;;;;;11.60;8.25;;;;;;;4.44;74.59;102023.78;4128553;28;20080;-69
2024/01/30 01:54:26;;;;;;;15.18;9.48;;;;;;;4.47;74.63;102024.91;4130940;28;20048;-68
2024/01/30 01:56:30;;;;;;;12.88;8.68;;;;;;;4.46;74.62;102022.22;4129224;28;20053;-68
2024/01/30 01:58:33;;;;;;;20.55;9.65;;;;;;;4.48;74.29;102018.97;4130190;28;20125;-68
2024/01/30 02:00:39;;;;;;;15.27;9.57;;;;;;;4.48;74.39;102013.81;4130246;28;20362;-67
2024/01/30 02:02:45;;;;;;;16.70;9.65;;;;;;;4.50;74.28;102019.94;4130207;28;20038;-68
2024/01/30 02:04:48;;;;;;;12.13;7.82;;;;;;;4.44;74.38;102016.97;4127726;28;20046;-68
2024/01/30 02:06:51;;;;;;;11.07;7.90;;;;;;;4.46;74.46;102014.50;4128962;28;20045;-68
2024/01/30 02:08:54;;;;;;;11.73;7.82;;;;;;;4.46;74.36;102019.66;4131281;28;20045;-68
2024/01/30 02:10:57;;;;;;;12.85;7.63;;;;;;;4.46;74.30;102017.97;4130473;28;20074;-68
2024/01/30 02:12:59;;;;;;;13.68;8.65;;;;;;;4.48;74.41;102016.41;4130688;28;20081;-68
2024/01/30 02:15:04;;;;;;;13.38;8.05;;;;;;;4.48;74.45;102010.31;4129261;28;20056;-68
2024/01/30 02:17:07;;;;;;;15.13;8.45;;;;;;;4.49;74.21;102010.44;4127082;28;20062;-68
2024/01/30 02:19:12;;;;;;;13.25;8.60;;;;;;;4.50;74.75;102019.94;4128263;28;20046;-68
2024/01/30 02:21:16;;;;;;;13.80;8.48;;;;;;;4.49;74.02;102017.28;4128514;28;20477;-68
2024/01/30 02:23:20;;;;;;;14.15;8.13;;;;;;;4.52;74.28;102020.03;4128743;28;20121;-68
2024/01/30 02:25:31;;;;;;;11.48;7.93;;;;;;;4.51;73.91;102016.59;4131237;28;20407;-68
2024/01/30 02:27:34;;;;;;;15.02;8.60;;;;;;;4.53;74.18;102025.28;4122413;28;20062;-68
2024/01/30 02:29:37;;;;;;;14.73;8.88;;;;;;;4.54;74.05;102021.00;4129479;28;20134;-68
2024/01/30 02:31:40;;;;;;;12.75;8.20;;;;;;;4.53;74.28;102022.72;4126446;28;20133;-68
2024/01/30 02:33:42;;;;;;;15.88;9.57;;;;;;;4.54;73.99;102027.06;4129879;28;20042;-68
2024/01/30 02:35:45;;;;;;;9.98;6.93;;;;;;;4.57;73.75;102020.31;4129389;28;20101;-67
2024/01/30 02:37:50;;;;;;;13.52;8.85;;;;;;;4.54;73.69;102024.50;4129498;28;20125;-67
2024/01/30 02:39:53;;;;;;;11.30;8.00;;;;;;;4.50;73.61;102025.09;4128621;28;20038;-67
2024/01/30 02:41:56;;;;;;;12.98;8.10;;;;;;;4.52;73.56;102023.50;4130899;28;20039;-67
2024/01/30 02:44:00;;;;;;;15.05;8.30;;;;;;;4.52;73.21;102017.47;4128707;28;20101;-67
2024/01/30 02:46:03;;;;;;;11.18;7.60;;;;;;;4.50;73.36;102019.94;4129276;28;20042;-67
2024/01/30 02:48:07;;;;;;;14.75;8.48;;;;;;;4.49;73.47;102023.31;4129727;28;20064;-67
2024/01/30 02:50:10;;;;;;;12.35;7.53;;;;;;;4.47;73.48;102024.03;4131599;28;20049;-67
2024/01/30 02:52:12;;;;;;;12.13;8.52;;;;;;;4.44;73.41;102023.78;4130838;28;20077;-67
2024/01/30 02:54:16;;;;;;;11.68;8.43;;;;;;;4.42;73.57;102025.41;4132721;28;20122;-67
2024/01/30 02:56:19;;;;;;;14.32;8.70;;;;;;;4.40;73.72;102022.72;4130018;28;20125;-67
2024/01/30 02:58:22;;;;;;;12.95;8.07;;;;;;;4.37;73.75;102027.69;4130762;28;20067;-68
2024/01/30 03:00:24;;;;;;;15.15;8.68;;;;;;;4.36;73.69;102025.88;4131908;28;20126;-68
2024/01/30 03:02:27;;;;;;;11.38;7.80;;;;;;;4.36;73.91;102031.03;4132381;28;20062;-68
2024/01/30 03:04:30;;;;;;;12.85;7.93;;;;;;;4.34;74.04;102023.22;4129264;28;20523;-68
2024/01/30 03:06:33;;;;;;;13.70;8.90;;;;;;;4.32;74.10;102011.94;4133339;28;20093;-68
2024/01/30 03:08:37;;;;;;;14.48;7.38;;;;;;;4.32;74.25;102024.81;4132909;28;20038;-67
2024/01/30 03:10:41;;;;;;;14.50;7.40;;;;;;;4.30;73.77;102016.06;4126216;28;20058;-68
2024/01/30 03:12:44;;;;;;;14.63;7.82;;;;;;;4.28;74.25;102019.34;4132420;28;20038;-68
2024/01/30 03:14:47;;;;;;;12.38;7.72;;;;;;;4.30;74.07;102012.63;4132808;28;20034;-68
2024/01/30 03:16:50;;;;;;;12.45;7.78;;;;;;;4.30;74.17;102010.03;4133337;28;20555;-68
2024/01/30 03:18:53;;;;;;;12.32;7.32;;;;;;;4.31;73.96;102012.72;4130874;28;20121;-68
2024/01/30 03:20:56;;;;;;;12.82;8.20;;;;;;;4.37;73.64;102012.22;4132128;28;20062;-68
2024/01/30 03:23:01;;;;;;;12.15;7.82;;;;;;;4.34;73.69;102015.50;4133166;28;20044;-68
2024/01/30 03:25:04;;;;;;;;;;;;;;;4.24;73.48;102018.25;4131348;28;20146;-68
2024/01/30 03:27:08;;;;;;;10.65;7.72;;;;;;;4.24;73.81;102005.38;4129052;28;20287;-68
2024/01/30 03:29:11;;;;;;;14.77;8.43;;;;;;;4.26;73.85;102008.06;4132392;28;20034;-68
2024/01/30 03:31:16;;;;;;;13.27;7.30;;;;;;;4.28;73.85;102014.19;4132127;28;20492;-68
2024/01/30 03:33:19;;;;;;;10.30;7.07;;;;;;;4.29;73.67;102003.09;4131737;28;20133;-67
2024/01/30 03:35:22;;;;;;;13.52;8.75;;;;;;;4.30;73.78;102010.03;4133035;28;20129;-68
2024/01/30 03:37:25;;;;;;;11.93;8.10;;;;;;;4.28;73.77;102017.69;4131197;28;20050;-67
2024/01/30 03:39:27;;;;;;;10.93;7.53;;;;;;;4.24;74.13;102018.25;4132367;28;20089;-67
2024/01/30 03:41:30;;;;;;;11.82;6.88;;;;;;;4.22;74.01;102017.28;4133300;28;20046;-67
2024/01/30 03:43:34;;;;;;;11.70;7.63;;;;;;;4.22;74.08;102016.38;4132128;28;20121;-67
2024/01/30 03:45:37;;;;;;;11.98;8.82;;;;;;;4.16;74.37;102020.34;4124492;28;20058;-67
2024/01/30 03:47:40;;;;;;;14.25;8.40;;;;;;;4.15;74.35;102018.56;4131624;28;20073;-67
2024/01/30 03:49:43;;;;;;;10.75;7.82;;;;;;;4.16;74.22;102017.78;4131144;28;20030;-67
2024/01/30 03:51:47;;;;;;;15.63;8.57;;;;;;;4.18;74.26;102020.44;4130736;28;20046;-68
2024/01/30 03:53:50;;;;;;;14.98;8.25;;;;;;;4.20;74.51;102018.84;4133388;28;20074;-68
2024/01/30 03:55:53;;;;;;;14.25;8.63;;;;;;;4.24;74.54;102019.97;4132140;28;20046;-67
2024/01/30 03:57:55;;;;;;;15.98;8.95;;;;;;;4.25;74.38;102021.72;4133446;28;20038;-67
2024/01/30 03:59:59;;;;;;;13.07;8.70;;;;;;;4.27;74.23;102020.16;4131172;28;20077;-67
2024/01/30 04:02:14;;;;;;;11.93;7.82;;;;;;;4.26;74.40;102010.63;4133076;28;20096;-67
2024/01/30 04:04:16;;;;;;;11.95;8.50;;;;;;;4.27;74.34;102009.84;4133096;28;20077;-68
2024/01/30 04:06:19;;;;;;;12.85;8.57;;;;;;;4.25;74.34;102014.91;4133167;28;20085;-67
2024/01/30 04:08:22;;;;;;;12.50;8.43;;;;;;;4.27;74.51;102009.84;4131955;28;20126;-68
2024/01/30 04:10:25;;;;;;;14.85;8.70;;;;;;;4.25;74.56;102016.56;4133245;28;20065;-68
2024/01/30 04:12:28;;;;;;;15.90;9.65;;;;;;;4.21;74.69;102009.47;4132899;28;20089;-68
2024/01/30 04:14:31;;;;;;;14.25;8.73;;;;;;;4.18;75.11;102008.44;4133237;28;20129;-67
2024/01/30 04:16:36;;;;;;;13.82;8.25;;;;;;;4.17;74.85;102016.97;4132458;28;20046;-68
2024/01/30 04:18:38;;;;;;;11.93;7.82;;;;;;;4.15;75.09;102015.97;4123400;28;20122;-67
2024/01/30 04:20:42;;;;;;;11.77;8.10;;;;;;;4.13;75.18;102014.09;4130796;28;20077;-68
2024/01/30 04:22:44;;;;;;;12.32;7.93;;;;;;;4.13;75.32;102008.94;4132280;28;20038;-67
2024/01/30 04:24:47;;;;;;;15.05;8.30;;;;;;;4.14;75.38;102011.63;4130438;28;20042;-68
2024/01/30 04:26:50;;;;;;;15.02;8.90;;;;;;;4.15;75.26;102015.97;4132135;28;20034;-68
2024/01/30 04:28:53;;;;;;;12.43;8.65;;;;;;;4.15;74.95;102010.81;4131704;28;20043;-67
2024/01/30 04:30:55;;;;;;;11.88;8.80;;;;;;;4.16;75.15;102022.91;4130699;28;20042;-68
2024/01/30 04:33:00;;;;;;;14.65;7.80;;;;;;;4.18;75.31;102015.28;4130644;28;20042;-67
2024/01/30 04:35:02;;;;;;;13.98;8.38;;;;;;;4.19;75.35;102017.97;4130855;28;20070;-67
2024/01/30 04:37:09;;;;;;;12.55;8.70;;;;;;;4.21;75.06;102017.19;4132363;28;20497;-67
2024/01/30 04:39:13;;;;;;;12.85;8.18;;;;;;;4.21;75.13;102023.22;4128153;28;20037;-67
2024/01/30 04:41:16;;;;;;;12.45;8.35;;;;;;;4.22;75.34;102024.09;4130023;28;20061;-68
2024/01/30 04:43:19;;;;;;;13.95;8.40;;;;;;;4.23;74.86;102025.88;4132501;28;20039;-67
2024/01/30 04:45:22;;;;;;;12.75;8.45;;;;;;;4.21;74.78;102027.47;4131077;28;20057;-68
2024/01/30 04:47:25;;;;;;;15.05;8.88;;;;;;;4.17;75.07;102029.81;4146059;28;20081;-68
2024/01/30 04:49:30;;;;;;;11.15;7.75;;;;;;;4.17;74.66;102024.69;4128698;28;20042;-68
2024/01/30 04:51:33;;;;;;;15.38;9.77;;;;;;;4.14;74.92;102023.59;4130346;28;20129;-67
2024/01/30 04:53:36;;;;;;;13.85;8.77;;;;;;;4.14;75.11;102018.44;4124573;28;20485;-68
2024/01/30 04:55:38;;;;;;;12.50;8.45;;;;;;;4.13;74.97;102030.44;4154363;28;20033;-68
2024/01/30 04:57:41;;;;;;;13.85;9.25;;;;;;;4.09;75.19;102025.88;4134439;28;20537;-68
2024/01/30 04:59:44;;;;;;;12.00;8.27;;;;;;;4.09;75.14;102028.44;4135644;28;20034;-68
2024/01/30 05:01:47;;;;;;;15.55;8.57;;;;;;;4.08;75.24;102029.22;4131483;28;20565;-68
2024/01/30 05:03:50;;;;;;;11.65;7.88;;;;;;;4.12;75.29;102030.34;4130342;28;20045;-67
2024/01/30 05:05:54;;;;;;;10.73;8.43;;;;;;;4.11;75.31;102024.28;4132215;28;20038;-68
2024/01/30 05:07:57;;;;;;;11.85;8.48;;;;;;;4.04;75.32;102027.25;4131167;28;20046;-68
2024/01/30 11:45:59;;;;;;;16.88;10.15;;;;;;;7.97;69.13;102064.72;4042305;29;20071;-77
2024/01/30 11:48:03;;;;;;;15.35;10.25;;;;;;;7.99;69.23;102052.72;4036660;29;20143;-77
2024/01/30 11:50:08;;;;;;;13.27;9.68;;;;;;;8.04;69.29;102047.75;4051021;29;20040;-77
2024/01/30 11:52:11;;;;;;;17.58;10.88;;;;;;;8.11;69.20;102036.91;4039536;29;20551;-77
2024/01/30 11:54:15;;;;;;;15.38;10.32;;;;;;;8.16;69.01;102027.66;4014978;29;20077;-77
2024/01/30 11:56:19;;;;;;;15.23;10.65;;;;;;;8.18;69.39;102026.03;4025520;29;20524;-79
2024/01/30 12:03:51;;;;;;;16.92;10.48;;;;;;;8.37;69.44;102021.75;4068944;29;20082;-77
2024/01/30 12:05:58;;;;;;;15.23;11.48;;;;;;;8.41;69.12;102015.00;4011975;29;20104;-77
2024/01/30 12:08:01;;;;;;;13.32;9.23;;;;;;;8.46;69.19;102021.34;4070078;29;20050;-77
2024/01/30 12:10:07;;;;;;;13.25;9.60;;;;;;;8.53;68.40;102008.75;4064624;29;20090;-77
2024/01/30 12:12:12;;;;;;;14.13;10.45;;;;;;;8.52;68.53;102016.44;4070632;29;20410;-77
2024/01/30 12:49:37;;;;;;;13.43;9.15;;;;;;;9.18;67.28;101997.84;3998833;29;20551;-75
2024/01/30 12:54:32;;;;;;;13.07;8.70;;;;;;;9.28;67.30;102002.63;4236736;23;20019;-73
2024/01/30 12:56:36;;;;;;;15.07;9.10;;;;;;;9.31;66.79;102007.94;4016909;29;20078;-72
2024/01/30 12:58:39;;;;;;;16.52;9.55;;;;;;;9.36;66.16;102001.28;4049903;29;20092;-72
2024/01/30 13:00:43;;;;;;;13.65;8.20;;;;;;;9.41;66.80;102007.53;4046985;29;20036;-72
2024/01/30 13:02:46;;;;;;;11.38;8.18;;;;;;;9.51;67.08;102007.97;4028153;29;20136;-73
2024/01/30 13:04:50;;;;;;;11.85;8.02;;;;;;;9.52;66.65;102007.13;4032505;29;20135;-73
2024/01/30 13:06:52;;;;;;;;;;;;;;;9.55;66.46;102010.75;4034308;29;20037;-76
2024/01/30 13:08:55;;;;;;;13.02;8.82;;;;;;;9.59;66.16;102011.75;4032682;29;19924;-76
2024/01/30 13:10:58;;;;;;;13.27;8.27;;;;;;;9.60;66.06;102004.03;4020113;29;20037;-77
2024/01/30 13:13:01;;;;;;;15.93;9.13;;;;;;;9.65;65.47;102008.53;4001789;29;20132;-78
2024/01/30 13:15:06;;;;;;;13.52;8.40;;;;;;;9.60;65.88;102006.63;4031688;29;20044;-76
2024/01/30 13:17:09;;;;;;;12.05;8.15;;;;;;;9.62;66.63;101998.91;4017461;29;20068;-77
2024/01/30 13:19:11;;;;;;;13.00;8.18;;;;;;;9.68;66.36;101998.28;4014573;29;20479;-77
2024/01/30 13:21:33;;;;;;;13.02;8.02;;;;;;;9.71;66.68;101999.31;4033627;29;20041;-77
2024/01/30 13:23:36;;;;;;;11.05;7.93;;;;;;;9.71;66.41;101991.53;4019577;29;20042;-76
2024/01/30 13:25:39;;;;;;;14.07;9.15;;;;;;;9.81;66.69;102000.56;4030387;29;20068;-77
2024/01/30 13:27:42;;;;;;;11.43;7.88;;;;;;;9.83;66.69;101995.44;4019610;29;20060;-77
2024/01/30 13:29:44;;;;;;;11.05;7.43;;;;;;;9.86;66.49;101995.59;4037895;29;20128;-77
2024/01/30 13:31:47;;;;;;;9.93;7.07;;;;;;;9.87;66.53;101995.66;4026469;29;20132;-76
2024/01/30 13:33:49;;;;;;;11.40;7.53;;;;;;;9.90;66.78;101994.88;3991441;23;20045;-77
2024/01/30 13:35:52;;;;;;;10.50;7.18;;;;;;;9.94;66.41;102001.97;4034349;29;20049;-77
2024/01/30 13:37:55;;;;;;;13.90;7.53;;;;;;;10.01;66.85;102001.41;4034354;29;20045;-77
2024/01/30 13:42:41;;;;;;;11.05;7.15;;;;;;;10.01;66.56;101992.75;4022876;29;20056;-76
2024/01/30 13:44:44;;;;;;;10.55;7.57;;;;;;;10.05;66.67;102000.72;4029269;29;20041;-76
2024/01/30 13:46:47;;;;;;;18.80;7.97;;;;;;;10.07;66.64;101995.59;4032135;29;20563;-76
2024/01/30 13:48:51;;;;;;;8.82;6.38;;;;;;;10.03;66.58;101997.19;4028444;29;20140;-77
2024/01/30 13:50:54;;;;;;;10.25;6.60;;;;;;;10.06;66.05;101991.19;4032760;29;20435;-82
2024/01/30 13:52:57;;;;;;;9.38;6.75;;;;;;;10.01;67.07;101988.41;4021977;29;20038;-81
2024/01/30 13:55:03;;;;;;;10.93;7.30;;;;;;;10.04;66.58;101991.16;4037728;29;20088;-79
2024/01/30 13:57:07;;;;;;;13.70;6.55;;;;;;;10.10;67.71;101988.81;4031954;29;20421;-80
2024/01/30 13:59:10;;;;;;;11.38;6.78;;;;;;;10.16;66.94;101987.28;4035662;29;20108;-81
2024/01/30 14:01:13;;;;;;;11.20;6.90;;;;;;;10.20;66.46;101986.59;4040435;29;20491;-79
2024/01/30 14:03:16;;;;;;;9.93;6.43;;;;;;;10.14;66.24;101975.09;4036599;29;20092;-75
2024/01/30 14:05:21;;;;;;;11.65;6.65;;;;;;;10.14;66.88;101977.69;4042059;29;20045;-77
2024/01/30 14:07:25;;;;;;;12.45;7.60;;;;;;;10.17;66.56;101976.94;4037347;29;20072;-75
2024/01/30 14:09:29;;;;;;;10.32;6.63;;;;;;;10.13;66.44;101975.94;4032597;29;20033;-75
2024/01/30 14:11:32;;;;;;;10.20;6.80;;;;;;;10.16;66.08;101969.09;4030058;29;20105;-74
2024/01/30 14:13:35;;;;;;;14.55;7.18;;;;;;;10.12;66.84;101981.09;4027988;29;20056;-75
2024/01/30 14:15:38;;;;;;;10.45;6.50;;;;;;;10.11;66.93;101980.19;4034064;29;20146;-75
2024/01/30 14:17:40;;;;;;;9.02;6.32;;;;;;;10.11;66.65;101972.38;4031145;29;20049;-74
2024/01/30 14:19:43;;;;;;;10.95;6.63;;;;;;;10.10;66.92;101975.81;4031469;29;20041;-75
2024/01/30 14:21:46;;;;;;;12.23;6.35;;;;;;;10.13;66.91;101977.63;4028134;29;20035;-74
2024/01/30 14:23:50;;;;;;;10.93;6.60;;;;;;;10.13;66.19;101977.63;4025126;29;20522;-74
2024/01/30 14:25:54;;;;;;;13.35;6.47;;;;;;;10.06;66.15;101970.41;4026043;29;20044;-75
2024/01/30 14:27:57;;;;;;;12.65;7.43;;;;;;;10.04;66.89;101978.16;4033401;29;20073;-75
2024/01/30 14:30:00;;;;;;;9.38;6.13;;;;;;;10.05;66.71;101977.34;4018010;29;20070;-75
2024/01/30 14:32:04;;;;;;;9.70;6.38;;;;;;;10.06;66.91;101971.31;4026363;29;20578;-74
2024/01/30 14:34:08;;;;;;;12.53;7.10;;;;;;;10.08;66.00;101969.66;4041002;29;20160;-74
2024/01/30 14:36:11;;;;;;;10.90;6.75;;;;;;;10.07;66.13;101969.59;4035276;29;20339;-74
2024/01/30 14:38:13;;;;;;;9.90;6.25;;;;;;;10.02;66.59;101977.22;4033431;29;20479;-74
2024/01/30 14:40:16;;;;;;;11.38;7.10;;;;;;;10.07;66.31;101972.19;4033398;29;20045;-72
2024/01/30 14:42:19;;;;;;;10.82;7.10;;;;;;;10.03;66.64;101984.19;4035126;29;20045;-74
2024/01/30 14:44:22;;;;;;;8.48;6.20;;;;;;;10.04;66.55;101978.16;4028952;29;20072;-74
2024/01/30 14:46:26;;;;;;;12.70;7.20;;;;;;;10.07;65.85;101983.47;4042115;29;20053;-74
2024/01/30 14:48:30;;;;;;;11.43;6.53;;;;;;;10.06;66.00;101986.00;4027766;29;20048;-74
2024/01/30 14:50:34;;;;;;;9.98;6.95;;;;;;;10.07;66.53;101980.88;4018688;29;20056;-74
2024/01/30 14:52:39;;;;;;;10.52;6.40;;;;;;;10.08;66.03;101990.44;4029811;29;20044;-74
2024/01/30 14:54:43;;;;;;;11.65;6.47;;;;;;;10.05;66.24;101995.53;4040908;29;20100;-74
2024/01/30 14:56:46;;;;;;;8.98;6.13;;;;;;;10.06;65.84;101999.00;4036230;29;20068;-74
2024/01/30 14:58:50;;;;;;;10.35;6.35;;;;;;;10.09;65.53;102007.81;4035473;29;20124;-74
2024/01/30 15:00:53;;;;;;;12.43;6.32;;;;;;;10.07;65.78;102011.19;4034878;29;20479;-74
2024/01/30 15:02:56;;;;;;;11.38;6.10;;;;;;;10.13;65.98;102003.63;4019973;29;20641;-74
2024/01/30 15:04:59;;;;;;;11.45;6.78;;;;;;;10.12;65.45;102005.34;4038758;29;20044;-75
2024/01/30 15:07:03;;;;;;;8.75;5.60;;;;;;;10.14;65.46;102006.28;4038617;29;20053;-74
2024/01/30 15:09:06;;;;;;;10.60;6.25;;;;;;;10.12;65.87;102005.34;4012487;29;20053;-74
2024/01/30 15:11:09;;;;;;;9.45;6.15;;;;;;;10.15;65.71;102012.38;4019963;29;20046;-74
2024/01/30 15:13:12;;;;;;;8.55;5.82;;;;;;;10.16;66.07;102008.94;4036716;29;20073;-74
2024/01/30 15:15:17;;;;;;;8.40;5.60;;;;;;;10.21;64.79;102006.56;4024878;29;20060;-74
2024/01/30 15:17:21;;;;;;;12.63;6.03;;;;;;;10.18;65.32;102009.91;4034740;29;20048;-74
2024/01/30 15:19:24;;;;;;;10.20;6.17;;;;;;;10.17;65.98;102009.84;4029462;29;20055;-74
2024/01/30 15:21:28;;;;;;;9.20;6.00;;;;;;;10.12;66.18;102010.53;4033474;29;20093;-74
2024/01/30 15:23:31;;;;;;;9.55;5.80;;;;;;;10.07;66.41;102009.44;4037469;29;20052;-74
2024/01/30 15:25:34;;;;;;;9.25;6.03;;;;;;;10.03;66.74;102007.56;4035705;29;20068;-74
2024/01/30 15:27:37;;;;;;;9.93;5.40;;;;;;;10.04;66.48;102011.94;4032406;29;20045;-75
2024/01/30 15:29:39;;;;;;;11.15;6.88;;;;;;;10.01;66.22;102004.00;4021887;29;20041;-74
2024/01/30 15:31:43;;;;;;;7.47;4.82;;;;;;;9.99;66.89;102008.28;4033518;29;20568;-74
2024/01/30 15:33:46;;;;;;;9.00;5.35;;;;;;;9.96;66.39;102010.75;4030240;29;20049;-74
2024/01/30 15:35:49;;;;;;;8.00;4.75;;;;;;;9.94;67.40;102022.75;4021573;29;20053;-74
2024/01/30 15:37:52;;;;;;;8.45;5.35;;;;;;;9.92;67.31;102014.03;4038954;29;20101;-74
2024/01/30 15:39:55;;;;;;;8.15;4.70;;;;;;;9.87;66.81;102019.03;4035136;29;20421;-74
2024/01/30 15:41:58;;;;;;;12.15;5.30;;;;;;;9.87;67.49;102021.63;4039854;29;20507;-74
2024/01/30 15:44:02;;;;;;;13.55;6.78;;;;;;;9.92;68.57;102021.81;4016404;29;20061;-75
2024/01/30 15:46:05;;;;;;;9.77;5.80;;;;;;;10.06;69.46;102020.69;4031836;29;20812;-76
2024/01/30 15:48:09;;;;;;;8.60;5.35;;;;;;;10.04;68.34;102024.03;4028869;29;20084;-75
2024/01/30 15:50:12;;;;;;;8.38;4.68;;;;;;;10.03;67.96;102022.25;4016752;29;20041;-75
2024/01/30 15:52:17;;;;;;;11.02;5.95;;;;;;;10.04;67.53;102024.03;4031834;29;20390;-74
2024/01/30 15:54:21;;;;;;;9.45;5.85;;;;;;;10.01;67.96;102030.00;4032042;29;20036;-75
2024/01/30 15:56:24;;;;;;;10.38;5.60;;;;;;;9.91;68.10;102028.72;4029589;29;20056;-75
2024/01/30 15:58:27;;;;;;;9.68;5.78;;;;;;;9.88;67.88;102028.59;4030873;29;20056;-75
2024/01/30 16:00:30;;;;;;;9.20;5.78;;;;;;;9.87;67.44;102032.03;4030439;29;20068;-76
2024/01/30 16:02:33;;;;;;;7.45;5.50;;;;;;;9.84;68.11;102031.00;4030579;29;20109;-76
2024/01/30 16:04:38;;;;;;;10.48;6.10;;;;;;;9.85;67.73;102028.47;4032976;29;20136;-74
2024/01/30 16:06:40;;;;;;;9.68;6.05;;;;;;;9.81;67.97;102031.75;4018170;29;20173;-74
2024/01/30 16:08:43;;;;;;;15.00;5.97;;;;;;;9.78;68.00;102027.31;4019004;29;20041;-75
2024/01/30 16:10:45;;;;;;;12.95;6.30;;;;;;;9.75;68.30;102041.88;4034423;29;20866;-75
2024/01/30 16:12:49;;;;;;;14.43;6.63;;;;;;;9.74;68.88;102041.00;4033292;29;20092;-74
2024/01/30 16:14:52;;;;;;;11.98;6.30;;;;;;;9.76;68.01;102030.66;4020030;29;20047;-74
2024/01/30 16:16:55;;;;;;;9.18;6.03;;;;;;;9.72;68.48;102039.16;4034218;29;20410;-74
2024/01/30 16:18:58;;;;;;;11.88;6.45;;;;;;;9.74;68.22;102047.91;4019483;29;20049;-73
2024/01/30 16:21:02;;;;;;;13.10;6.50;;;;;;;9.66;68.38;102039.75;4036150;29;20583;-74
2024/01/30 16:23:05;;;;;;;10.63;5.90;;;;;;;9.69;68.68;102047.69;4033634;29;20069;-74
2024/01/30 16:25:08;;;;;;;9.25;6.15;;;;;;;9.67;68.70;102049.34;4019880;29;20080;-76
2024/01/30 16:27:11;;;;;;;8.63;5.95;;;;;;;9.66;68.41;102047.56;4036045;29;20045;-76
2024/01/30 16:29:14;;;;;;;14.18;6.32;;;;;;;9.73;68.73;102054.78;4036368;29;20715;-73
2024/01/30 16:31:20;;;;;;;10.65;6.40;;;;;;;9.71;68.99;102055.53;4035575;29;20048;-74
2024/01/30 16:33:23;;;;;;;10.38;6.72;;;;;;;9.69;68.51;102055.47;4019108;29;20045;-74
2024/01/30 16:35:25;;;;;;;10.85;6.35;;;;;;;9.70;68.64;102053.78;4019779;29;20440;-74
2024/01/30 16:37:49;;;;;;;11.55;6.88;;;;;;;9.68;68.58;102064.13;4021274;29;20101;-74
2024/01/30 16:39:52;;;;;;;11.73;6.43;;;;;;;9.70;68.15;102066.78;4017952;29;20563;-74
2024/01/30 16:41:55;;;;;;;10.25;6.47;;;;;;;9.70;68.63;102065.06;4026755;29;20472;-74
2024/01/30 16:43:58;;;;;;;9.18;5.60;;;;;;;9.68;68.54;102065.78;4033928;29;20488;-74
2024/01/30 16:46:01;;;;;;;9.68;6.13;;;;;;;9.64;68.61;102074.28;4036273;29;20049;-74
2024/01/30 16:51:38;;;;;;;12.35;6.43;;;;;;;9.64;68.85;102074.28;4038474;23;20047;-77
2024/01/30 16:53:43;;;;;;;12.48;6.35;;;;;;;9.63;68.55;102078.59;4032902;29;20037;-77
2024/01/30 16:55:46;;;;;;;17.77;6.57;;;;;;;9.63;68.75;102077.72;4045268;29;20064;-77
2024/01/30 16:57:49;;;;;;;9.82;6.00;;;;;;;9.65;69.30;102076.06;4036320;29;20545;-77
2024/01/30 16:59:51;;;;;;;10.05;6.95;;;;;;;9.65;69.06;102076.97;4047790;29;20040;-77